sensor_id;sensor_type;location;lat;lon;timestamp;pressure;altitude;pressure_sealevel;temperature;humidity
23677;BME280;31493;49.058;12.190;2024-03-23T00:55:15;95467.75;;;9.30;100.00
23677;BME280;31493;49.058;12.190;2024-03-23T00:57:41;95459.19;;;9.29;100.00
23677;BME280;31493;49.058;12.190;2024-03-23T01:00:09;95450.25;;;9.33;100.00
23677;BME280;31493;49.058;12.190;2024-03-23T01:02:36;95444.47;;;9.30;100.00
23677;BME280;31493;49.058;12.190;2024-03-23T01:05:03;95443.19;;;9.24;100.00
23677;BME280;31493;49.058;12.190;2024-03-23T01:07:30;95438.47;;;9.07;100.00
23677;BME280;31493;49.058;12.190;2024-03-23T01:09:58;95457.94;;;8.88;100.00
23677;BME280;31493;49.058;12.190;2024-03-23T01:12:24;95449.94;;;8.91;100.00
23677;BME280;31493;49.058;12.190;2024-03-23T01:14:51;95461.00;;;8.93;100.00
23677;BME280;31493;49.058;12.190;2024-03-23T01:17:17;95448.34;;;9.02;100.00
23677;BME280;31493;49.058;12.190;2024-03-23T01:19:44;95451.63;;;9.15;100.00
23677;BME280;31493;49.058;12.190;2024-03-23T01:22:10;95458.75;;;8.78;100.00
23677;BME280;31493;49.058;12.190;2024-03-23T01:24:37;95449.91;;;8.80;100.00
23677;BME280;31493;49.058;12.190;2024-03-23T01:27:04;95450.66;;;8.93;100.00
23677;BME280;31493;49.058;12.190;2024-03-23T01:29:31;95434.38;;;8.69;100.00
23677;BME280;31493;49.058;12.190;2024-03-23T01:31:57;95432.66;;;8.92;100.00
23677;BME280;31493;49.058;12.190;2024-03-23T01:34:24;95444.97;;;8.66;100.00
23677;BME280;31493;49.058;12.190;2024-03-23T01:36:51;95431.38;;;8.86;100.00
23677;BME280;31493;49.058;12.190;2024-03-23T01:39:17;95414.00;;;8.88;100.00
23677;BME280;31493;49.058;12.190;2024-03-23T01:41:44;95413.94;;;8.66;100.00
23677;BME280;31493;49.058;12.190;2024-03-23T01:44:12;95395.41;;;8.83;100.00
23677;BME280;31493;49.058;12.190;2024-03-23T01:46:38;95397.28;;;8.70;100.00
23677;BME280;31493;49.058;12.190;2024-03-23T01:49:07;95405.84;;;8.59;100.00
23677;BME280;31493;49.058;12.190;2024-03-23T01:51:35;95400.59;;;8.83;100.00
23677;BME280;31493;49.058;12.190;2024-03-23T01:54:03;95397.75;;;8.75;100.00
23677;BME280;31493;49.058;12.190;2024-03-23T01:56:30;95381.44;;;8.86;100.00
23677;BME280;31493;49.058;12.190;2024-03-23T01:58:58;95374.72;;;8.72;100.00
23677;BME280;31493;49.058;12.190;2024-03-23T02:01:26;95370.03;;;8.77;100.00
23677;BME280;31493;49.058;12.190;2024-03-23T02:03:53;95355.69;;;8.84;100.00
23677;BME280;31493;49.058;12.190;2024-03-23T02:06:19;95363.44;;;8.73;100.00
23677;BME280;31493;49.058;12.190;2024-03-23T02:08:46;95359.22;;;8.72;100.00
23677;BME280;31493;49.058;12.190;2024-03-23T02:11:12;95348.41;;;8.67;100.00
23677;BME280;31493;49.058;12.190;2024-03-23T02:13:39;95344.06;;;8.79;100.00
23677;BME280;31493;49.058;12.190;2024-03-23T02:16:05;95346.41;;;8.71;100.00
23677;BME280;31493;49.058;12.190;2024-03-23T02:18:34;95354.88;;;8.84;100.00
23677;BME280;31493;49.058;12.190;2024-03-23T02:21:00;95346.41;;;8.59;100.00
23677;BME280;31493;49.058;12.190;2024-03-23T02:23:28;95337.94;;;8.80;100.00
23677;BME280;31493;49.058;12.190;2024-03-23T02:25:54;95342.28;;;8.79;100.00
23677;BME280;31493;49.058;12.190;2024-03-23T02:28:21;95341.13;;;8.72;100.00
23677;BME280;31493;49.058;12.190;2024-03-23T02:30:48;95336.19;;;8.80;100.00
23677;BME280;31493;49.058;12.190;2024-03-23T02:33:15;95337.47;;;8.75;100.00
23677;BME280;31493;49.058;12.190;2024-03-23T02:35:41;95335.69;;;8.75;100.00
23677;BME280;31493;49.058;12.190;2024-03-23T02:38:08;95322.56;;;8.89;100.00
23677;BME280;31493;49.058;12.190;2024-03-23T02:40:36;95317.16;;;8.70;100.00
23677;BME280;31493;49.058;12.190;2024-03-23T02:43:03;95311.63;;;8.63;100.00
23677;BME280;31493;49.058;12.190;2024-03-23T02:45:29;95307.75;;;8.58;100.00
23677;BME280;31493;49.058;12.190;2024-03-23T02:47:57;95317.25;;;8.57;100.00
23677;BME280;31493;49.058;12.190;2024-03-23T02:50:23;95297.16;;;8.27;100.00
23677;BME280;31493;49.058;12.190;2024-03-23T02:52:50;95308.13;;;8.64;100.00
23677;BME280;31493;49.058;12.190;2024-03-23T02:55:16;95316.66;;;8.54;100.00
23677;BME280;31493;49.058;12.190;2024-03-23T02:57:44;95320.28;;;8.51;100.00
23677;BME280;31493;49.058;12.190;2024-03-23T03:00:11;95312.78;;;8.48;100.00
23677;BME280;31493;49.058;12.190;2024-03-23T03:02:38;95309.63;;;8.78;100.00
23677;BME280;31493;49.058;12.190;2024-03-23T03:05:05;95310.56;;;8.55;100.00
23677;BME280;31493;49.058;12.190;2024-03-23T03:07:34;95303.50;;;8.68;100.00
23677;BME280;31493;49.058;12.190;2024-03-23T03:10:00;95309.38;;;8.36;100.00
23677;BME280;31493;49.058;12.190;2024-03-23T03:12:27;95308.41;;;8.37;100.00
23677;BME280;31493;49.058;12.190;2024-03-23T03:14:55;95300.66;;;8.37;100.00
23677;BME280;31493;49.058;12.190;2024-03-23T03:17:22;95307.38;;;8.51;100.00
23677;BME280;31493;49.058;12.190;2024-03-23T03:19:49;95295.66;;;8.58;100.00
23677;BME280;31493;49.058;12.190;2024-03-23T03:22:21;95283.66;;;8.68;100.00
23677;BME280;31493;49.058;12.190;2024-03-23T03:24:47;95285.09;;;8.84;100.00
23677;BME280;31493;49.058;12.190;2024-03-23T03:27:14;95265.28;;;9.05;100.00
23677;BME280;31493;49.058;12.190;2024-03-23T03:29:40;95274.94;;;9.03;100.00
23677;BME280;31493;49.058;12.190;2024-03-23T03:32:09;95271.91;;;8.98;100.00
23677;BME280;31493;49.058;12.190;2024-03-23T03:34:35;95268.69;;;9.06;100.00
23677;BME280;31493;49.058;12.190;2024-03-23T03:37:02;95259.72;;;8.78;100.00
23677;BME280;31493;49.058;12.190;2024-03-23T03:39:28;95261.47;;;8.77;100.00
23677;BME280;31493;49.058;12.190;2024-03-23T03:41:55;95260.06;;;8.73;100.00
23677;BME280;31493;49.058;12.190;2024-03-23T03:44:21;95246.03;;;9.09;100.00
23677;BME280;31493;49.058;12.190;2024-03-23T03:46:48;95243.25;;;8.67;100.00
23677;BME280;31493;49.058;12.190;2024-03-23T03:49:15;95251.00;;;8.79;100.00
23677;BME280;31493;49.058;12.190;2024-03-23T03:51:42;95234.06;;;8.86;100.00
23677;BME280;31493;49.058;12.190;2024-03-23T03:54:08;95231.44;;;9.19;100.00
23677;BME280;31493;49.058;12.190;2024-03-23T03:56:35;95229.09;;;9.05;100.00
23677;BME280;31493;49.058;12.190;2024-03-23T03:59:01;95228.69;;;8.89;100.00
23677;BME280;31493;49.058;12.190;2024-03-23T04:01:28;95226.84;;;9.12;100.00
23677;BME280;31493;49.058;12.190;2024-03-23T04:03:54;95218.06;;;8.92;100.00
23677;BME280;31493;49.058;12.190;2024-03-23T04:06:22;95221.44;;;9.26;100.00
23677;BME280;31493;49.058;12.190;2024-03-23T04:08:49;95220.31;;;8.96;100.00
23677;BME280;31493;49.058;12.190;2024-03-23T04:11:16;95221.66;;;9.12;100.00
23677;BME280;31493;49.058;12.190;2024-03-23T04:13:43;95213.72;;;9.04;100.00
23677;BME280;31493;49.058;12.190;2024-03-23T04:16:10;95216.81;;;9.18;100.00
23677;BME280;31493;49.058;12.190;2024-03-23T04:18:36;95201.94;;;9.11;100.00
23677;BME280;31493;49.058;12.190;2024-03-23T04:21:03;95203.44;;;9.25;100.00
23677;BME280;31493;49.058;12.190;2024-03-23T04:23:30;95199.16;;;9.03;100.00
23677;BME280;31493;49.058;12.190;2024-03-23T04:26:03;95199.63;;;8.96;100.00
23677;BME280;31493;49.058;12.190;2024-03-23T04:28:29;95199.03;;;8.93;100.00
23677;BME280;31493;49.058;12.190;2024-03-23T04:30:56;95178.75;;;8.88;100.00
23677;BME280;31493;49.058;12.190;2024-03-23T04:33:22;95183.38;;;9.06;100.00
23677;BME280;31493;49.058;12.190;2024-03-23T04:35:49;95190.13;;;8.86;100.00
23677;BME280;31493;49.058;12.190;2024-03-23T04:38:15;95187.56;;;8.75;100.00
23677;BME280;31493;49.058;12.190;2024-03-23T04:40:43;95168.97;;;8.92;100.00
23677;BME280;31493;49.058;12.190;2024-03-23T04:43:10;95171.22;;;8.85;100.00
23677;BME280;31493;49.058;12.190;2024-03-23T04:45:37;95163.75;;;8.60;100.00
23677;BME280;31493;49.058;12.190;2024-03-23T04:48:05;95161.38;;;8.68;100.00
23677;BME280;31493;49.058;12.190;2024-03-23T04:50:32;95161.72;;;8.75;100.00
23677;BME280;31493;49.058;12.190;2024-03-23T04:52:59;95152.03;;;8.88;100.00
23677;BME280;31493;49.058;12.190;2024-03-23T04:55:26;95145.41;;;9.06;100.00
23677;BME280;31493;49.058;12.190;2024-03-23T04:57:53;95141.16;;;8.73;100.00
23677;BME280;31493;49.058;12.190;2024-03-23T05:00:20;95139.56;;;8.93;100.00
23677;BME280;31493;49.058;12.190;2024-03-23T05:02:46;95133.13;;;8.87;100.00
23677;BME280;31493;49.058;12.190;2024-03-23T05:05:13;95136.16;;;8.92;100.00
23677;BME280;31493;49.058;12.190;2024-03-23T05:07:40;95135.13;;;8.95;100.00
23677;BME280;31493;49.058;12.190;2024-03-23T05:10:09;95140.34;;;9.05;100.00
23677;BME280;31493;49.058;12.190;2024-03-23T05:12:36;95119.31;;;9.09;100.00
23677;BME280;31493;49.058;12.190;2024-03-23T05:15:05;95133.44;;;8.94;100.00
23677;BME280;31493;49.058;12.190;2024-03-23T05:17:32;95135.00;;;8.96;100.00
23677;BME280;31493;49.058;12.190;2024-03-23T05:19:59;95127.50;;;9.26;100.00
23677;BME280;31493;49.058;12.190;2024-03-23T05:22:25;95122.13;;;9.06;100.00
23677;BME280;31493;49.058;12.190;2024-03-23T05:24:53;95121.88;;;9.09;100.00
23677;BME280;31493;49.058;12.190;2024-03-23T05:27:19;95116.91;;;9.17;100.00
23677;BME280;31493;49.058;12.190;2024-03-23T05:29:46;95119.66;;;9.05;100.00
23677;BME280;31493;49.058;12.190;2024-03-23T05:32:14;95113.00;;;9.02;100.00
23677;BME280;31493;49.058;12.190;2024-03-23T05:34:41;95106.97;;;9.13;100.00
23677;BME280;31493;49.058;12.190;2024-03-23T05:37:07;95115.31;;;9.05;100.00
23677;BME280;31493;49.058;12.190;2024-03-23T05:39:34;95125.00;;;8.92;100.00
23677;BME280;31493;49.058;12.190;2024-03-23T05:42:00;95121.75;;;9.11;100.00
23677;BME280;31493;49.058;12.190;2024-03-23T05:44:27;95115.56;;;9.02;100.00
23677;BME280;31493;49.058;12.190;2024-03-23T05:46:54;95103.88;;;8.87;100.00
23677;BME280;31493;49.058;12.190;2024-03-23T05:49:22;95104.66;;;8.99;100.00
23677;BME280;31493;49.058;12.190;2024-03-23T05:51:48;95105.44;;;8.78;100.00
23677;BME280;31493;49.058;12.190;2024-03-23T05:54:15;95088.09;;;9.01;100.00
23677;BME280;31493;49.058;12.190;2024-03-23T05:56:41;95080.44;;;9.00;100.00
23677;BME280;31493;49.058;12.190;2024-03-23T05:59:08;95088.84;;;8.81;100.00
23677;BME280;31493;49.058;12.190;2024-03-23T06:01:35;95081.84;;;8.72;100.00
23677;BME280;31493;49.058;12.190;2024-03-23T06:04:02;95093.06;;;8.82;100.00
23677;BME280;31493;49.058;12.190;2024-03-23T06:06:29;95080.59;;;8.87;100.00
23677;BME280;31493;49.058;12.190;2024-03-23T06:08:57;95071.53;;;8.92;100.00
23677;BME280;31493;49.058;12.190;2024-03-23T06:11:23;95062.28;;;8.90;100.00
23677;BME280;31493;49.058;12.190;2024-03-23T06:13:52;95070.66;;;8.82;100.00
23677;BME280;31493;49.058;12.190;2024-03-23T06:16:18;95054.25;;;8.72;100.00
23677;BME280;31493;49.058;12.190;2024-03-23T06:18:49;95059.03;;;8.77;100.00
23677;BME280;31493;49.058;12.190;2024-03-23T06:21:15;95046.44;;;8.83;100.00
23677;BME280;31493;49.058;12.190;2024-03-23T06:23:44;95032.69;;;8.83;100.00
23677;BME280;31493;49.058;12.190;2024-03-23T06:26:16;95025.06;;;9.02;100.00
23677;BME280;31493;49.058;12.190;2024-03-23T06:28:43;95008.91;;;8.68;100.00
23677;BME280;31493;49.058;12.190;2024-03-23T06:31:09;95014.38;;;9.07;100.00
23677;BME280;31493;49.058;12.190;2024-03-23T06:33:37;95007.03;;;8.91;100.00
23677;BME280;31493;49.058;12.190;2024-03-23T06:36:03;95004.63;;;9.20;100.00
23677;BME280;31493;49.058;12.190;2024-03-23T06:38:30;95010.31;;;9.14;100.00
23677;BME280;31493;49.058;12.190;2024-03-23T06:40:58;95009.38;;;9.36;100.00
23677;BME280;31493;49.058;12.190;2024-03-23T06:43:25;95022.31;;;9.15;100.00
23677;BME280;31493;49.058;12.190;2024-03-23T06:45:54;95009.81;;;9.41;100.00
23677;BME280;31493;49.058;12.190;2024-03-23T06:48:22;95008.16;;;9.40;100.00
23677;BME280;31493;49.058;12.190;2024-03-23T06:50:48;94999.81;;;9.57;100.00
23677;BME280;31493;49.058;12.190;2024-03-23T06:53:15;95020.25;;;9.60;100.00
23677;BME280;31493;49.058;12.190;2024-03-23T06:55:41;95018.91;;;9.66;100.00
23677;BME280;31493;49.058;12.190;2024-03-23T06:58:10;95020.06;;;9.83;100.00
23677;BME280;31493;49.058;12.190;2024-03-23T07:00:36;95012.03;;;9.86;100.00
23677;BME280;31493;49.058;12.190;2024-03-23T07:03:03;95027.47;;;9.97;100.00
23677;BME280;31493;49.058;12.190;2024-03-23T07:05:29;95022.44;;;9.95;100.00
23677;BME280;31493;49.058;12.190;2024-03-23T07:07:56;95010.09;;;9.68;100.00
23677;BME280;31493;49.058;12.190;2024-03-23T07:10:22;95012.56;;;9.80;100.00
23677;BME280;31493;49.058;12.190;2024-03-23T07:12:49;95007.50;;;9.78;100.00
23677;BME280;31493;49.058;12.190;2024-03-23T07:15:16;95024.44;;;9.92;100.00
23677;BME280;31493;49.058;12.190;2024-03-23T07:17:46;95015.97;;;9.80;100.00
23677;BME280;31493;49.058;12.190;2024-03-23T07:20:12;95017.09;;;9.87;100.00
23677;BME280;31493;49.058;12.190;2024-03-23T07:22:39;95007.00;;;9.84;100.00
23677;BME280;31493;49.058;12.190;2024-03-23T07:25:06;95017.41;;;10.03;100.00
23677;BME280;31493;49.058;12.190;2024-03-23T07:27:33;95026.13;;;10.02;100.00
23677;BME280;31493;49.058;12.190;2024-03-23T07:29:59;95025.88;;;10.06;100.00
23677;BME280;31493;49.058;12.190;2024-03-23T07:32:28;95037.75;;;9.77;100.00
23677;BME280;31493;49.058;12.190;2024-03-23T07:34:54;95045.66;;;9.76;100.00
23677;BME280;31493;49.058;12.190;2024-03-23T07:37:21;95047.47;;;9.85;100.00
23677;BME280;31493;49.058;12.190;2024-03-23T07:39:47;95057.34;;;9.70;100.00
23677;BME280;31493;49.058;12.190;2024-03-23T07:42:14;95055.31;;;9.43;100.00
23677;BME280;31493;49.058;12.190;2024-03-23T07:44:40;95075.09;;;9.54;100.00
23677;BME280;31493;49.058;12.190;2024-03-23T07:47:07;95083.06;;;9.62;100.00
23677;BME280;31493;49.058;12.190;2024-03-23T07:49:34;95094.63;;;9.37;100.00
23677;BME280;31493;49.058;12.190;2024-03-23T07:52:02;95111.84;;;9.48;100.00
23677;BME280;31493;49.058;12.190;2024-03-23T07:54:28;95125.50;;;9.50;100.00
23677;BME280;31493;49.058;12.190;2024-03-23T07:56:55;95119.78;;;9.35;100.00
23677;BME280;31493;49.058;12.190;2024-03-23T07:59:21;95147.38;;;9.46;100.00
23677;BME280;31493;49.058;12.190;2024-03-23T08:01:47;95165.03;;;9.09;100.00
23677;BME280;31493;49.058;12.190;2024-03-23T08:04:13;95145.75;;;9.13;100.00
23677;BME280;31493;49.058;12.190;2024-03-23T08:06:49;95147.59;;;8.90;100.00
23677;BME280;31493;49.058;12.190;2024-03-23T08:09:15;95147.16;;;8.74;100.00
23677;BME280;31493;49.058;12.190;2024-03-23T08:11:44;95155.09;;;8.82;100.00
23677;BME280;31493;49.058;12.190;2024-03-23T08:14:12;95145.63;;;8.71;100.00
23677;BME280;31493;49.058;12.190;2024-03-23T08:16:39;95164.88;;;8.78;100.00
23677;BME280;31493;49.058;12.190;2024-03-23T08:19:06;95156.34;;;8.66;100.00
23677;BME280;31493;49.058;12.190;2024-03-23T08:21:34;95145.41;;;8.63;100.00
23677;BME280;31493;49.058;12.190;2024-03-23T08:24:01;95154.84;;;8.53;100.00
23677;BME280;31493;49.058;12.190;2024-03-23T08:26:29;95163.72;;;8.71;100.00
23677;BME280;31493;49.058;12.190;2024-03-23T08:28:55;95163.88;;;8.47;100.00
23677;BME280;31493;49.058;12.190;2024-03-23T08:31:22;95167.75;;;8.41;100.00
23677;BME280;31493;49.058;12.190;2024-03-23T08:33:48;95153.22;;;8.40;100.00
23677;BME280;31493;49.058;12.190;2024-03-23T08:36:16;95170.69;;;8.48;100.00
23677;BME280;31493;49.058;12.190;2024-03-23T08:38:42;95171.50;;;8.37;100.00
23677;BME280;31493;49.058;12.190;2024-03-23T08:41:11;95187.97;;;8.48;100.00
23677;BME280;31493;49.058;12.190;2024-03-23T08:43:38;95180.56;;;8.43;100.00
23677;BME280;31493;49.058;12.190;2024-03-23T08:46:06;95186.09;;;8.16;100.00
23677;BME280;31493;49.058;12.190;2024-03-23T08:48:35;95196.78;;;8.34;100.00
23677;BME280;31493;49.058;12.190;2024-03-23T08:51:02;95182.09;;;8.23;100.00
23677;BME280;31493;49.058;12.190;2024-03-23T08:53:29;95194.53;;;8.18;100.00
23677;BME280;31493;49.058;12.190;2024-03-23T08:55:57;95197.47;;;8.25;100.00
23677;BME280;31493;49.058;12.190;2024-03-23T08:58:26;95198.53;;;8.33;100.00
23677;BME280;31493;49.058;12.190;2024-03-23T09:00:54;95203.22;;;8.28;100.00
23677;BME280;31493;49.058;12.190;2024-03-23T09:03:23;95179.16;;;8.28;100.00
23677;BME280;31493;49.058;12.190;2024-03-23T09:05:51;95191.47;;;8.24;100.00
23677;BME280;31493;49.058;12.190;2024-03-23T09:08:17;95196.19;;;8.30;100.00
23677;BME280;31493;49.058;12.190;2024-03-23T09:10:44;95194.88;;;8.36;100.00
23677;BME280;31493;49.058;12.190;2024-03-23T09:13:10;95192.97;;;8.72;100.00
23677;BME280;31493;49.058;12.190;2024-03-23T09:15:47;95208.50;;;8.72;100.00
23677;BME280;31493;49.058;12.190;2024-03-23T09:18:14;95209.88;;;8.76;100.00
23677;BME280;31493;49.058;12.190;2024-03-23T09:20:41;95208.38;;;8.62;100.00
23677;BME280;31493;49.058;12.190;2024-03-23T09:23:07;95221.28;;;8.62;100.00
23677;BME280;31493;49.058;12.190;2024-03-23T09:25:36;95221.25;;;8.95;100.00
23677;BME280;31493;49.058;12.190;2024-03-23T09:28:03;95238.91;;;8.79;100.00
23677;BME280;31493;49.058;12.190;2024-03-23T09:30:32;95239.22;;;8.97;100.00
23677;BME280;31493;49.058;12.190;2024-03-23T09:32:59;95225.34;;;8.98;100.00
23677;BME280;31493;49.058;12.190;2024-03-23T09:35:26;95226.50;;;9.05;100.00
23677;BME280;31493;49.058;12.190;2024-03-23T09:37:52;95218.94;;;9.36;100.00
23677;BME280;31493;49.058;12.190;2024-03-23T09:40:20;95222.84;;;9.62;100.00
23677;BME280;31493;49.058;12.190;2024-03-23T09:42:50;95207.81;;;9.56;100.00
23677;BME280;31493;49.058;12.190;2024-03-23T09:45:21;95230.06;;;9.47;100.00
23677;BME280;31493;49.058;12.190;2024-03-23T09:47:47;95226.53;;;9.48;100.00
23677;BME280;31493;49.058;12.190;2024-03-23T09:50:17;95197.19;;;9.59;100.00
23677;BME280;31493;49.058;12.190;2024-03-23T09:52:45;95221.50;;;9.36;100.00
23677;BME280;31493;49.058;12.190;2024-03-23T09:55:12;95210.81;;;9.61;100.00
23677;BME280;31493;49.058;12.190;2024-03-23T09:57:39;95215.16;;;9.40;100.00
23677;BME280;31493;49.058;12.190;2024-03-23T10:00:07;95233.56;;;9.58;100.00
23677;BME280;31493;49.058;12.190;2024-03-23T10:02:34;95230.00;;;9.59;100.00
23677;BME280;31493;49.058;12.190;2024-03-23T10:05:01;95224.53;;;9.52;100.00
23677;BME280;31493;49.058;12.190;2024-03-23T10:07:29;95257.97;;;9.44;100.00
23677;BME280;31493;49.058;12.190;2024-03-23T10:09:56;95266.50;;;8.67;100.00
23677;BME280;31493;49.058;12.190;2024-03-23T10:12:23;95287.66;;;8.84;100.00
23677;BME280;31493;49.058;12.190;2024-03-23T10:14:50;95257.81;;;8.57;100.00
23677;BME280;31493;49.058;12.190;2024-03-23T10:17:17;95279.22;;;8.59;100.00
23677;BME280;31493;49.058;12.190;2024-03-23T10:19:45;95282.25;;;8.98;100.00
23677;BME280;31493;49.058;12.190;2024-03-23T10:22:14;95285.75;;;9.19;100.00
23677;BME280;31493;49.058;12.190;2024-03-23T10:24:42;95303.03;;;9.19;100.00
23677;BME280;31493;49.058;12.190;2024-03-23T10:27:09;95298.69;;;9.19;100.00
23677;BME280;31493;49.058;12.190;2024-03-23T10:29:35;95318.53;;;9.41;100.00
23677;BME280;31493;49.058;12.190;2024-03-23T10:32:09;95317.16;;;9.04;100.00
23677;BME280;31493;49.058;12.190;2024-03-23T10:34:35;95328.56;;;9.01;100.00
23677;BME280;31493;49.058;12.190;2024-03-23T10:37:04;95345.13;;;9.10;100.00
23677;BME280;31493;49.058;12.190;2024-03-23T10:39:34;95345.59;;;9.37;100.00
23677;BME280;31493;49.058;12.190;2024-03-23T10:42:07;95350.84;;;8.57;100.00
23677;BME280;31493;49.058;12.190;2024-03-23T10:44:34;95344.66;;;8.82;100.00
23677;BME280;31493;49.058;12.190;2024-03-23T10:47:02;95337.69;;;9.16;100.00
23677;BME280;31493;49.058;12.190;2024-03-23T10:49:29;95340.91;;;9.31;100.00
23677;BME280;31493;49.058;12.190;2024-03-23T10:51:58;95345.25;;;9.08;100.00
23677;BME280;31493;49.058;12.190;2024-03-23T10:54:25;95339.00;;;8.77;100.00
23677;BME280;31493;49.058;12.190;2024-03-23T10:56:56;95345.13;;;8.99;99.64
23677;BME280;31493;49.058;12.190;2024-03-23T10:59:25;95347.94;;;8.73;100.00
23677;BME280;31493;49.058;12.190;2024-03-23T11:02:37;95362.41;;;8.29;96.63
23677;BME280;31493;49.058;12.190;2024-03-23T11:05:28;95352.81;;;8.42;97.78
23677;BME280;31493;49.058;12.190;2024-03-23T11:07:55;95352.38;;;8.60;94.53
23677;BME280;31493;49.058;12.190;2024-03-23T11:10:26;95349.97;;;8.23;99.09
23677;BME280;31493;49.058;12.190;2024-03-23T11:12:52;95344.44;;;8.17;97.02
23677;BME280;31493;49.058;12.190;2024-03-23T11:15:20;95358.47;;;8.48;99.08
23677;BME280;31493;49.058;12.190;2024-03-23T11:18:05;95345.09;;;8.54;100.00
23677;BME280;31493;49.058;12.190;2024-03-23T11:20:34;95359.88;;;8.05;99.06
23677;BME280;31493;49.058;12.190;2024-03-23T11:23:01;95348.63;;;7.82;97.95
23677;BME280;31493;49.058;12.190;2024-03-23T11:25:29;95338.47;;;7.92;100.00
23677;BME280;31493;49.058;12.190;2024-03-23T11:27:56;95341.31;;;8.00;100.00
23677;BME280;31493;49.058;12.190;2024-03-23T11:30:24;95357.75;;;7.99;100.00
23677;BME280;31493;49.058;12.190;2024-03-23T11:32:53;95361.00;;;7.90;100.00
23677;BME280;31493;49.058;12.190;2024-03-23T11:35:28;95374.44;;;8.06;100.00
23677;BME280;31493;49.058;12.190;2024-03-23T11:38:04;95377.56;;;7.99;100.00
23677;BME280;31493;49.058;12.190;2024-03-23T11:40:31;95391.44;;;8.44;100.00
23677;BME280;31493;49.058;12.190;2024-03-23T11:42:58;95391.38;;;8.46;100.00
23677;BME280;31493;49.058;12.190;2024-03-23T11:45:26;95407.09;;;8.54;99.57
23677;BME280;31493;49.058;12.190;2024-03-23T11:48:07;95398.38;;;8.90;99.48
23677;BME280;31493;49.058;12.190;2024-03-23T11:50:37;95409.06;;;9.53;96.41
23677;BME280;31493;49.058;12.190;2024-03-23T11:53:07;95413.09;;;9.34;96.82
23677;BME280;31493;49.058;12.190;2024-03-23T11:55:45;95434.56;;;8.43;91.31
23677;BME280;31493;49.058;12.190;2024-03-23T11:58:11;95436.84;;;8.00;91.30
23677;BME280;31493;49.058;12.190;2024-03-23T12:00:39;95445.88;;;7.82;91.29
23677;BME280;31493;49.058;12.190;2024-03-23T12:03:05;95440.44;;;7.74;91.11
23677;BME280;31493;49.058;12.190;2024-03-23T12:05:33;95426.09;;;7.70;94.44
23677;BME280;31493;49.058;12.190;2024-03-23T12:08:20;95441.44;;;7.34;95.08
23677;BME280;31493;49.058;12.190;2024-03-23T12:10:49;95449.38;;;7.31;98.19
23677;BME280;31493;49.058;12.190;2024-03-23T12:13:16;95454.66;;;7.55;100.00
23677;BME280;31493;49.058;12.190;2024-03-23T12:15:44;95455.78;;;7.51;100.00
23677;BME280;31493;49.058;12.190;2024-03-23T12:18:11;95441.34;;;7.49;100.00
23677;BME280;31493;49.058;12.190;2024-03-23T12:20:38;95436.28;;;7.60;100.00
23677;BME280;31493;49.058;12.190;2024-03-23T12:23:06;95437.44;;;7.80;100.00
23677;BME280;31493;49.058;12.190;2024-03-23T12:25:35;95421.66;;;7.96;94.15
23677;BME280;31493;49.058;12.190;2024-03-23T12:28:01;95380.53;;;7.81;91.77
23677;BME280;31493;49.058;12.190;2024-03-23T12:30:28;95398.28;;;7.86;89.43
23677;BME280;31493;49.058;12.190;2024-03-23T12:32:54;95402.19;;;8.15;87.56
23677;BME280;31493;49.058;12.190;2024-03-23T12:35:22;95407.84;;;7.97;81.32
23677;BME280;31493;49.058;12.190;2024-03-23T12:37:48;95427.78;;;7.95;79.66
23677;BME280;31493;49.058;12.190;2024-03-23T12:40:15;95419.53;;;7.89;79.03
23677;BME280;31493;49.058;12.190;2024-03-23T12:42:42;95419.31;;;7.93;82.18
23677;BME280;31493;49.058;12.190;2024-03-23T12:45:09;95438.72;;;7.98;80.28
23677;BME280;31493;49.058;12.190;2024-03-23T12:47:35;95430.34;;;7.71;78.95
23677;BME280;31493;49.058;12.190;2024-03-23T12:50:03;95427.59;;;7.61;79.99
23677;BME280;31493;49.058;12.190;2024-03-23T12:52:29;95431.09;;;7.60;82.44
23677;BME280;31493;49.058;12.190;2024-03-23T12:54:56;95429.63;;;7.69;82.00
23677;BME280;31493;49.058;12.190;2024-03-23T12:57:23;95432.03;;;7.46;82.52
23677;BME280;31493;49.058;12.190;2024-03-23T12:59:52;95447.34;;;7.37;85.94
23677;BME280;31493;49.058;12.190;2024-03-23T13:02:19;95439.63;;;7.73;87.97
23677;BME280;31493;49.058;12.190;2024-03-23T13:04:49;95446.19;;;7.15;92.74
23677;BME280;31493;49.058;12.190;2024-03-23T13:07:15;95442.78;;;7.27;96.85
23677;BME280;31493;49.058;12.190;2024-03-23T13:09:43;95439.09;;;7.19;99.17
23677;BME280;31493;49.058;12.190;2024-03-23T13:12:09;95430.13;;;6.99;99.77
23677;BME280;31493;49.058;12.190;2024-03-23T13:14:38;95411.69;;;7.05;97.41
23677;BME280;31493;49.058;12.190;2024-03-23T13:17:05;95420.53;;;7.14;96.24
23677;BME280;31493;49.058;12.190;2024-03-23T13:19:33;95413.00;;;7.11;94.70
23677;BME280;31493;49.058;12.190;2024-03-23T13:22:00;95420.84;;;7.09;94.86
23677;BME280;31493;49.058;12.190;2024-03-23T13:24:28;95420.78;;;7.34;94.55
23677;BME280;31493;49.058;12.190;2024-03-23T13:26:55;95422.66;;;7.32;92.09
23677;BME280;31493;49.058;12.190;2024-03-23T13:29:23;95429.63;;;7.06;91.45
23677;BME280;31493;49.058;12.190;2024-03-23T13:31:50;95425.25;;;7.32;91.83
23677;BME280;31493;49.058;12.190;2024-03-23T13:34:19;95427.81;;;7.45;92.20
23677;BME280;31493;49.058;12.190;2024-03-23T13:36:46;95426.47;;;7.52;90.24
23677;BME280;31493;49.058;12.190;2024-03-23T13:39:14;95433.28;;;7.28;88.22
23677;BME280;31493;49.058;12.190;2024-03-23T13:41:42;95440.84;;;7.18;89.67
23677;BME280;31493;49.058;12.190;2024-03-23T13:44:10;95440.56;;;7.36;88.77
23677;BME280;31493;49.058;12.190;2024-03-23T13:46:37;95442.50;;;7.06;87.12
23677;BME280;31493;49.058;12.190;2024-03-23T13:49:04;95427.72;;;7.21;86.14